Rio Bananal, Brazil
Current Conditions -  °F | °C
As of 7:00 AM on Wednesday 22 Oct 2014 (Local Time) from SBVT Reporting Station
Haze Haze  
Wind Chill: 19°   Ceiling: 1500
Heat Index: 19°   Visibility: 3mi
Dew Point: 17°   Wind: 12mph
Humidity: 88%   Direction: 210°SSW
Pressure: 30.12"   Gusts: NA
Location:  19.26°S, 40.34°W
Report Text: SBVT 220900Z 21010KT 5000 BR FEW007 BKN015 OVC080 19/17 Q1020
Loading
Personal Weather Stations






























Interactive Weather Map
Tropical Storm Tracking
New forecast layout! Learn more

10-Day Weather Forecast

Advertisements
Track Severe Weather on mobile